Time;durP1;ratioP1;P1;durP2;ratioP2;P2;SDS_P1;SDS_P2;PMS_P1;PMS_P2;Temp;Humidity;BMP_temperature;BMP_pressure;BME280_temperature;BME280_humidity;BME280_pressure;Samples;Min_cycle;Max_cycle;Signal;HPM_P1;HPM_P2
2021/12/16 00:08:49;;;;;;;41.60;20.45;;;;;;;2.96;100.00;101522.91;1768698;80;20991;-74
2021/12/16 00:11:37;;;;;;;35.35;18.07;;;;;;;2.98;100.00;101525.03;1803007;78;21047;-74
2021/12/16 00:35:42;;;;;;;37.10;19.23;;;;;;;2.95;100.00;101528.83;1793482;78;21586;-73
2021/12/16 00:38:10;;;;;;;35.43;17.55;;;;;;;2.93;100.00;101529.67;1797941;78;21003;-73
2021/12/16 00:40:40;;;;;;;36.88;19.12;;;;;;;2.86;100.00;101535.16;1784392;79;21071;-72
2021/12/16 00:43:21;;;;;;;35.65;18.80;;;;;;;2.83;100.00;101541.49;1782722;79;21043;-71
2021/12/16 00:54:09;;;;;;;;;;;;;;;2.76;100.00;101538.08;1783725;79;20398;-71
2021/12/16 00:56:36;;;;;;;36.93;17.55;;;;;;;2.69;100.00;101523.62;1778791;78;20131;-71
2021/12/16 00:59:06;;;;;;;35.78;18.67;;;;;;;2.73;100.00;101529.58;1786619;78;20981;-70
2021/12/16 01:07:50;;;;;;;37.80;19.23;;;;;;;2.70;100.00;101527.88;1777141;79;21499;-70
2021/12/16 01:33:28;;;;;;;41.58;20.12;;;;;;;2.74;100.00;101522.40;1792533;78;21504;-71
2021/12/16 01:34:56;;;;;;;42.00;20.37;;;;;;;2.67;100.00;101540.56;1796854;78;21051;-71
2021/12/16 01:48:00;;;;;;;44.60;20.52;;;;;;;2.85;100.00;101539.80;1794198;78;20996;-71
2021/12/16 01:50:27;;;;;;;41.60;19.73;;;;;;;2.85;100.00;101544.05;1785005;79;21054;-71
2021/12/16 01:55:33;;;;;;;41.18;19.82;;;;;;;2.75;100.00;101554.16;1792140;79;21006;-71
2021/12/16 01:58:12;;;;;;;46.63;20.08;;;;;;;2.77;100.00;101557.99;1794621;79;20980;-71
2021/12/16 02:00:55;;;;;;;45.35;19.52;;;;;;;2.80;100.00;101553.78;1807007;78;21550;-71
2021/12/16 02:03:24;;;;;;;;;;;;;;;2.70;100.00;101554.58;1774489;80;21063;-71
2021/12/16 02:08:21;;;;;;;45.00;20.65;;;;;;;2.67;100.00;101548.62;1786979;79;21024;-71
2021/12/16 02:11:01;;;;;;;39.88;18.62;;;;;;;2.63;100.00;101550.28;1771132;80;21036;-71
2021/12/16 02:13:44;;;;;;;41.63;19.92;;;;;;;2.67;100.00;101545.65;1779280;78;21011;-71
2021/12/16 02:27:32;;;;;;;41.10;19.17;;;;;;;2.51;100.00;101539.63;1788118;79;21659;-71
2021/12/16 02:32:54;;;;;;;43.10;19.87;;;;;;;2.53;100.00;101541.75;1778304;78;21055;-71
2021/12/16 02:35:40;;;;;;;40.63;18.45;;;;;;;2.50;100.00;101532.02;1798558;78;21035;-71
2021/12/16 02:38:02;;;;;;;42.15;19.07;;;;;;;2.40;100.00;101528.13;1800223;78;21051;-71
2021/12/16 02:40:28;;;;;;;38.48;17.50;;;;;;;2.52;100.00;101539.23;1775174;79;21476;-71
2021/12/16 02:43:01;;;;;;;37.15;17.45;;;;;;;2.45;100.00;101538.75;1780873;79;21047;-71
2021/12/16 02:48:31;;;;;;;38.63;17.55;;;;;;;2.49;100.00;101543.84;1792602;78;21034;-70
2021/12/16 02:51:03;;;;;;;38.88;18.00;;;;;;;2.46;100.00;101546.81;1784500;78;21034;-71
2021/12/16 02:53:31;;;;;;;38.20;17.52;;;;;;;2.47;100.00;101544.26;1792711;78;21011;-71
2021/12/16 02:55:59;;;;;;;41.68;18.82;;;;;;;2.51;100.00;101540.89;1779918;78;21036;-71
2021/12/16 02:58:26;;;;;;;37.33;16.80;;;;;;;2.50;100.00;101534.13;1793842;78;21038;-71
2021/12/16 03:01:07;;;;;;;36.70;17.10;;;;;;;2.54;100.00;101537.11;1799587;78;21050;-71
2021/12/16 03:03:37;;;;;;;37.50;16.77;;;;;;;2.60;100.00;101541.39;1815647;78;21039;-70
2021/12/16 03:06:03;;;;;;;36.03;16.90;;;;;;;2.66;100.00;101535.06;1788815;79;21557;-71
2021/12/16 03:08:32;;;;;;;38.58;16.95;;;;;;;2.69;100.00;101537.61;1809990;78;21004;-70
2021/12/16 03:11:20;;;;;;;36.60;17.30;;;;;;;2.74;100.00;101541.47;1787978;78;20980;-71
2021/12/16 03:13:49;;;;;;;37.85;16.95;;;;;;;2.71;100.00;101537.19;1791415;78;20987;-71
2021/12/16 03:19:04;;;;;;;38.73;17.52;;;;;;;2.80;100.00;101546.15;1782095;78;21542;-71
2021/12/16 03:21:29;;;;;;;37.90;17.45;;;;;;;2.83;100.00;101550.82;1793585;78;21106;-71
2021/12/16 03:24:18;;;;;;;40.48;17.87;;;;;;;2.78;100.00;101545.72;1815024;78;21047;-71
2021/12/16 03:37:22;;;;;;;39.10;18.32;;;;;;;2.64;100.00;101550.73;1799393;79;20976;-70
2021/12/16 03:39:57;;;;;;;36.42;17.48;;;;;;;2.68;100.00;101550.33;1779495;79;21060;-71
2021/12/16 03:42:32;;;;;;;37.45;15.23;;;;;;;2.68;100.00;101550.33;1777461;79;21067;-70
2021/12/16 03:45:07;;;;;;;34.23;16.07;;;;;;;2.66;100.00;101551.59;1783214;79;20979;-71
2021/12/16 03:47:43;;;;;;;33.73;16.15;;;;;;;2.59;100.00;101550.69;1803102;78;21489;-71
2021/12/16 03:50:16;;;;;;;35.73;17.32;;;;;;;2.54;100.00;101548.55;1792862;78;21526;-70
2021/12/16 03:52:44;;;;;;;36.90;17.32;;;;;;;2.53;100.00;101554.46;1778285;79;20996;-71
2021/12/16 03:55:14;;;;;;;32.58;15.40;;;;;;;2.51;100.00;101545.98;1784737;78;21017;-71
2021/12/16 03:57:43;;;;;;;37.30;17.27;;;;;;;2.47;100.00;101549.34;1780465;79;21047;-70
2021/12/16 04:00:17;;;;;;;43.05;18.05;;;;;;;2.49;100.00;101556.55;1818726;78;21039;-71
2021/12/16 04:02:48;;;;;;;35.75;16.05;;;;;;;2.51;100.00;101551.48;1796507;78;21035;-72
2021/12/16 04:05:19;;;;;;;35.83;15.83;;;;;;;2.40;100.00;101557.78;1794308;78;20996;-71
2021/12/16 04:07:49;;;;;;;39.73;17.65;;;;;;;2.36;100.00;101559.88;1776676;79;21523;-72
2021/12/16 04:10:36;;;;;;;34.10;16.15;;;;;;;2.33;100.00;101556.03;1791524;78;21531;-71
2021/12/16 04:13:07;;;;;;;35.85;16.93;;;;;;;2.32;100.00;101552.64;1797676;78;21024;-70
2021/12/16 04:15:34;;;;;;;38.15;16.90;;;;;;;2.32;100.00;101558.16;1797857;78;21015;-71
2021/12/16 04:18:04;;;;;;;38.20;16.57;;;;;;;2.27;100.00;101559.41;1814120;78;21503;-71
2021/12/16 04:20:33;;;;;;;39.15;16.70;;;;;;;2.20;100.00;101550.86;1800082;78;21067;-70
2021/12/16 04:23:01;;;;;;;40.00;16.85;;;;;;;2.29;100.00;101555.18;1792796;78;21008;-70
2021/12/16 04:25:33;;;;;;;40.23;18.50;;;;;;;2.35;100.00;101556.89;1773731;80;21432;-71
2021/12/16 04:28:06;;;;;;;38.83;17.95;;;;;;;2.41;100.00;101551.84;1783456;79;21083;-71
2021/12/16 04:30:33;;;;;;;38.60;18.10;;;;;;;2.40;100.00;101545.92;1780514;79;21004;-69
2021/12/16 04:33:03;;;;;;;38.23;17.70;;;;;;;2.45;100.00;101541.28;1788151;79;21063;-70
2021/12/16 04:35:33;;;;;;;43.52;18.52;;;;;;;2.42;100.00;101540.02;1803711;79;21030;-70
2021/12/16 04:38:01;;;;;;;40.08;17.55;;;;;;;2.39;100.00;101545.91;1794619;78;20988;-70
2021/12/16 04:40:29;;;;;;;43.00;18.42;;;;;;;2.38;100.00;101541.68;1782409;78;20996;-70
2021/12/16 04:43:01;;;;;;;36.50;17.07;;;;;;;2.42;100.00;101547.20;1785601;78;22005;-69
2021/12/16 04:45:33;;;;;;;36.65;17.17;;;;;;;2.34;100.00;101552.23;1778882;79;21062;-71
2021/12/16 04:48:04;;;;;;;37.70;17.42;;;;;;;2.41;100.00;101548.03;1789801;79;21066;-70
2021/12/16 04:50:33;;;;;;;40.67;18.98;;;;;;;2.46;100.00;101550.20;1789517;78;21039;-70
2021/12/16 04:53:00;;;;;;;44.80;19.40;;;;;;;2.45;100.00;101548.91;1785339;79;21512;-71
2021/12/16 04:55:31;;;;;;;47.83;20.43;;;;;;;2.44;100.00;101549.77;1763729;78;21748;-71
2021/12/16 04:57:58;;;;;;;49.42;20.40;;;;;;;2.33;100.00;101549.28;1802931;78;21507;-71
2021/12/16 05:00:26;;;;;;;42.53;19.42;;;;;;;2.33;100.00;101552.22;1783703;79;21076;-70
2021/12/16 05:02:55;;;;;;;46.75;21.17;;;;;;;2.30;100.00;101556.02;1788372;78;21516;-71
2021/12/16 05:05:25;;;;;;;46.63;20.15;;;;;;;2.32;100.00;101556.45;1784802;78;21550;-71
2021/12/16 05:07:52;;;;;;;48.98;21.05;;;;;;;2.23;100.00;101559.34;1777997;78;21564;-71
2021/12/16 05:10:21;;;;;;;47.40;20.52;;;;;;;2.23;100.00;101544.10;1780092;79;21542;-70
2021/12/16 05:12:56;;;;;;;47.05;20.68;;;;;;;2.18;100.00;101545.34;1791646;78;21016;-71
2021/12/16 05:15:29;;;;;;;52.78;22.15;;;;;;;2.10;100.00;101547.83;1789134;78;20976;-71
2021/12/16 05:17:58;;;;;;;47.93;20.32;;;;;;;2.08;100.00;101543.58;1760523;79;21020;-71
2021/12/16 05:20:31;;;;;;;53.02;21.52;;;;;;;1.99;100.00;101547.75;1793886;78;21078;-70
2021/12/16 05:28:25;;;;;;;59.40;23.75;;;;;;;1.99;100.00;101543.10;1785309;79;20989;-69
2021/12/16 05:30:54;;;;;;;55.35;23.55;;;;;;;2.06;100.00;101542.72;1771837;80;20999;-70
2021/12/16 05:33:23;;;;;;;56.92;24.05;;;;;;;2.06;100.00;101538.91;1782672;79;21043;-70
2021/12/16 05:35:53;;;;;;;53.13;23.00;;;;;;;2.11;100.00;101528.34;1800090;79;22296;-70
2021/12/16 05:38:20;;;;;;;56.75;24.02;;;;;;;2.16;100.00;101537.70;1780942;78;21549;-70
2021/12/16 05:40:48;;;;;;;55.50;24.32;;;;;;;2.22;100.00;101544.53;1791126;78;21024;-70
2021/12/16 05:43:24;;;;;;;58.55;24.72;;;;;;;2.15;100.00;101548.73;1790817;79;21063;-70
2021/12/16 05:45:57;;;;;;;57.35;23.62;;;;;;;2.10;100.00;101545.29;1775240;80;21516;-70
2021/12/16 05:48:28;;;;;;;58.00;24.30;;;;;;;2.04;100.00;101547.78;1785397;80;20987;-70
2021/12/16 05:51:00;;;;;;;61.48;24.43;;;;;;;1.99;100.00;101551.98;1791933;79;21153;-70
2021/12/16 05:53:29;;;;;;;61.53;25.52;;;;;;;1.98;100.00;101551.54;1782762;79;21114;-70
2021/12/16 05:55:58;;;;;;;60.08;24.15;;;;;;;1.98;100.00;101542.23;1798391;78;21070;-70
2021/12/16 05:58:28;;;;;;;62.08;26.33;;;;;;;1.92;100.00;101534.98;1778670;79;21154;-70
2021/12/16 06:01:00;;;;;;;61.90;25.23;;;;;;;1.96;100.00;101542.64;1786230;79;21058;-70
2021/12/16 06:03:28;;;;;;;53.87;23.73;;;;;;;2.02;100.00;101538.45;1794377;79;21063;-71
2021/12/16 06:05:55;;;;;;;59.58;23.90;;;;;;;2.02;100.00;101538.45;1787901;78;20976;-69
2021/12/16 06:08:23;;;;;;;55.30;24.10;;;;;;;1.98;100.00;101542.23;1775257;79;20996;-69
2021/12/16 06:11:13;;;;;;;64.27;24.82;;;;;;;1.98;100.00;101542.23;1800239;78;21530;-70
2021/12/16 06:13:24;;;;;;;59.38;23.70;;;;;;;2.04;100.00;101541.43;1788484;78;21174;-70
2021/12/16 06:22:24;;;;;;;65.47;25.90;;;;;;;2.06;100.00;101544.83;1787067;78;21511;-70
2021/12/16 06:29:30;;;;;;;57.55;24.15;;;;;;;2.07;100.00;101546.55;1758656;79;21008;-69
2021/12/16 06:31:57;;;;;;;60.08;24.95;;;;;;;2.07;100.00;101546.55;1784476;79;21537;-70
2021/12/16 06:34:24;;;;;;;66.70;26.05;;;;;;;2.14;100.00;101555.05;1780568;79;21074;-69
2021/12/16 06:36:52;;;;;;;64.00;25.72;;;;;;;2.21;100.00;101549.20;1791665;79;21521;-69
2021/12/16 06:39:19;;;;;;;62.67;26.47;;;;;;;2.21;100.00;101549.20;1796735;78;21007;-69
2021/12/16 06:41:48;;;;;;;65.55;26.23;;;;;;;2.27;100.00;101549.23;1799654;79;21011;-70
2021/12/16 06:44:35;;;;;;;65.37;27.48;;;;;;;2.33;100.00;101550.55;1785975;78;21027;-70
2021/12/16 06:47:05;;;;;;;66.45;26.55;;;;;;;2.40;100.00;101549.73;1788348;78;21078;-69
2021/12/16 06:49:29;;;;;;;64.95;26.87;;;;;;;2.45;100.00;101553.56;1791472;78;20972;-70
2021/12/16 06:52:01;;;;;;;69.60;27.60;;;;;;;2.45;100.00;101556.53;1777278;78;20988;-69
2021/12/16 06:54:32;;;;;;;67.65;28.40;;;;;;;2.46;100.00;101563.33;1778395;79;21524;-70
2021/12/16 06:59:32;;;;;;;59.73;26.37;;;;;;;2.61;100.00;101575.69;1770601;78;21004;-70
2021/12/16 07:02:32;;;;;;;63.42;25.92;;;;;;;2.60;100.00;101571.89;1775623;79;21039;-70
2021/12/16 07:04:23;;;;;;;60.98;24.92;;;;;;;2.68;100.00;101570.67;1776237;78;20976;-70
2021/12/16 07:06:49;;;;;;;58.85;25.82;;;;;;;2.69;100.00;101573.63;1792952;78;21087;-70
2021/12/16 07:09:19;;;;;;;54.70;24.45;;;;;;;2.67;100.00;101573.61;1795226;79;21500;-70
2021/12/16 07:11:52;;;;;;;60.23;25.43;;;;;;;2.63;100.00;101578.67;1776810;79;21459;-70
2021/12/16 07:14:34;;;;;;;57.03;23.07;;;;;;;2.60;100.00;101574.00;1793140;78;21019;-70
2021/12/16 07:16:57;;;;;;;55.88;23.57;;;;;;;2.56;100.00;101573.56;1770727;79;21059;-70
2021/12/16 07:19:23;;;;;;;58.40;23.95;;;;;;;2.54;100.00;101569.31;1765354;80;21020;-69
2021/12/16 07:21:50;;;;;;;59.73;24.55;;;;;;;2.49;100.00;101566.72;1771022;79;21099;-70
2021/12/16 07:24:19;;;;;;;59.65;24.67;;;;;;;2.45;100.00;101562.45;1774063;78;20987;-69
2021/12/16 07:26:47;;;;;;;61.65;24.80;;;;;;;2.48;100.00;101562.50;1765739;80;20957;-70
2021/12/16 07:29:15;;;;;;;63.10;26.85;;;;;;;2.43;100.00;101572.20;1766341;80;20992;-70
2021/12/16 07:31:42;;;;;;;64.85;27.90;;;;;;;2.52;100.00;101579.47;1777261;79;21005;-70
2021/12/16 07:34:11;;;;;;;58.05;25.25;;;;;;;2.50;100.00;101577.33;1780843;78;21004;-70
2021/12/16 07:36:43;;;;;;;60.83;24.63;;;;;;;2.56;100.00;101581.18;1764448;79;21052;-69
2021/12/16 07:39:14;;;;;;;61.30;24.07;;;;;;;2.53;100.00;101581.58;1763930;79;20999;-70
2021/12/16 07:41:46;;;;;;;63.00;25.95;;;;;;;2.53;100.00;101581.15;1775540;79;21114;-70
2021/12/16 07:44:11;;;;;;;59.90;25.85;;;;;;;2.49;100.00;101587.05;1733019;81;21095;-69
2021/12/16 07:46:49;;;;;;;64.87;26.60;;;;;;;2.49;100.00;101581.12;1692550;83;21079;-69
2021/12/16 07:49:21;;;;;;;60.20;25.43;;;;;;;2.51;100.00;101590.88;1762590;81;21012;-70
2021/12/16 07:51:49;;;;;;;55.23;24.45;;;;;;;2.51;100.00;101594.27;1760780;80;21075;-69
2021/12/16 07:54:18;;;;;;;64.15;26.02;;;;;;;2.44;100.00;101602.70;1762348;81;21473;-70
2021/12/16 07:56:48;;;;;;;69.37;27.52;;;;;;;2.49;100.00;101601.03;1752842;80;21529;-69
2021/12/16 07:59:15;;;;;;;66.05;26.48;;;;;;;2.51;100.00;101597.23;1756985;80;21003;-68
2021/12/16 08:01:45;;;;;;;73.45;27.05;;;;;;;2.58;100.00;101594.75;1753122;81;21068;-69
2021/12/16 08:04:21;;;;;;;69.32;26.60;;;;;;;2.57;100.00;101606.17;1758028;80;21614;-70
2021/12/16 08:06:51;;;;;;;69.32;30.12;;;;;;;2.58;100.00;101601.11;1751708;81;21080;-69
2021/12/16 08:09:20;;;;;;;70.78;28.20;;;;;;;2.67;100.00;101594.38;1753343;81;21014;-69
2021/12/16 08:11:51;;;;;;;75.45;31.27;;;;;;;2.61;100.00;101594.75;1753510;80;21032;-69
2021/12/16 08:14:19;;;;;;;73.45;30.35;;;;;;;2.59;100.00;101595.59;1761384;81;21051;-69
2021/12/16 08:16:46;;;;;;;72.37;30.57;;;;;;;2.60;100.00;101593.07;1752495;80;21007;-69
2021/12/16 08:19:13;;;;;;;75.92;30.68;;;;;;;2.63;100.00;101593.50;1753704;81;21024;-70
2021/12/16 08:21:42;;;;;;;62.62;26.40;;;;;;;2.68;100.00;101587.20;1764412;80;21072;-70
2021/12/16 08:24:16;;;;;;;75.32;29.98;;;;;;;2.62;100.00;101591.81;1760575;81;21021;-69
2021/12/16 08:26:46;;;;;;;70.67;29.20;;;;;;;2.60;100.00;101584.59;1756187;81;21005;-69
2021/12/16 08:29:13;;;;;;;69.00;28.07;;;;;;;2.62;100.00;101582.92;1758049;80;20991;-70
2021/12/16 08:31:42;;;;;;;69.22;27.13;;;;;;;2.62;100.00;101579.11;1765275;79;20973;-70
2021/12/16 08:34:11;;;;;;;84.10;29.85;;;;;;;2.63;100.00;101576.98;1778712;79;21009;-69
2021/12/16 08:36:38;;;;;;;71.53;27.77;;;;;;;2.54;100.00;101579.05;1778765;78;21001;-70
2021/12/16 08:39:08;;;;;;;70.80;27.65;;;;;;;2.55;100.00;101571.00;1782168;79;21001;-68
2021/12/16 08:41:40;;;;;;;73.15;28.60;;;;;;;2.50;100.00;101573.52;1781663;79;21010;-69
2021/12/16 08:44:09;;;;;;;73.35;29.05;;;;;;;2.48;100.00;101565.47;1776959;79;21563;-70
2021/12/16 08:46:40;;;;;;;70.28;27.42;;;;;;;2.46;100.00;101562.91;1767304;79;21442;-69
2021/12/16 08:49:07;;;;;;;71.37;28.87;;;;;;;2.38;100.00;101562.01;1760512;80;20999;-70
2021/12/16 08:51:41;;;;;;;69.45;26.80;;;;;;;2.41;100.00;101563.28;1765665;80;21527;-69
2021/12/16 08:54:08;;;;;;;66.28;27.32;;;;;;;2.41;100.00;101563.28;1749429;80;21052;-70
2021/12/16 08:56:35;;;;;;;63.92;25.32;;;;;;;2.47;100.00;101560.78;1748291;81;21054;-69
2021/12/16 08:59:05;;;;;;;72.17;28.15;;;;;;;2.43;100.00;101555.67;1757986;81;21520;-68
2021/12/16 09:01:37;;;;;;;70.00;27.30;;;;;;;2.45;100.00;101554.84;1762249;80;21086;-69
2021/12/16 09:04:06;;;;;;;69.87;29.67;;;;;;;2.56;100.00;101550.69;1767790;80;21468;-69
2021/12/16 09:06:33;;;;;;;69.45;28.32;;;;;;;2.61;100.00;101560.44;1758909;80;21024;-70
2021/12/16 09:09:02;;;;;;;70.47;28.67;;;;;;;2.65;100.00;101559.20;1747799;80;21102;-69
2021/12/16 09:11:32;;;;;;;68.12;28.27;;;;;;;2.57;100.00;101558.72;1730648;80;21085;-69
2021/12/16 09:14:00;;;;;;;67.27;26.45;;;;;;;2.53;100.00;101554.46;1750242;80;21524;-70
2021/12/16 09:16:32;;;;;;;64.87;27.40;;;;;;;2.52;100.00;101556.59;1756881;81;21543;-70
2021/12/16 09:19:00;;;;;;;67.85;27.30;;;;;;;2.45;100.00;101548.91;1759150;81;21012;-69
2021/12/16 09:21:32;;;;;;;63.75;26.75;;;;;;;2.48;100.00;101547.67;1758711;81;21564;-70
2021/12/16 09:24:04;;;;;;;62.93;24.82;;;;;;;2.50;100.00;101548.11;1761369;81;21552;-69
2021/12/16 09:26:35;;;;;;;61.48;25.17;;;;;;;2.50;100.00;101536.67;1743860;81;21055;-69
2021/12/16 09:29:03;;;;;;;65.83;26.95;;;;;;;2.52;100.00;101541.34;1744318;81;21083;-68
2021/12/16 09:31:35;;;;;;;60.55;26.12;;;;;;;2.53;100.00;101532.86;1747632;81;21083;-70
2021/12/16 09:34:08;;;;;;;59.77;25.72;;;;;;;2.51;100.00;101526.91;1723085;80;21113;-70
2021/12/16 09:36:41;;;;;;;52.90;24.47;;;;;;;2.53;100.00;101529.05;1673264;81;21074;-70
2021/12/16 09:39:13;;;;;;;57.50;24.47;;;;;;;2.50;100.00;101521.42;1745554;81;21504;-69
2021/12/16 09:41:47;;;;;;;60.00;25.00;;;;;;;2.39;100.00;101516.28;1750931;80;21521;-70
2021/12/16 09:44:15;;;;;;;56.75;23.67;;;;;;;2.38;100.00;101520.92;1757760;81;21052;-69
2021/12/16 09:46:48;;;;;;;49.85;22.42;;;;;;;2.43;100.00;101513.31;1756091;81;21564;-68
2021/12/16 09:49:19;;;;;;;56.90;24.98;;;;;;;2.43;100.00;101506.97;1759060;80;21010;-69
2021/12/16 09:51:49;;;;;;;66.28;27.27;;;;;;;2.43;100.00;101500.61;1761517;80;21019;-69
2021/12/16 09:54:23;;;;;;;57.60;25.77;;;;;;;2.44;100.00;101496.41;1766469;80;20984;-69
2021/12/16 09:56:52;;;;;;;56.85;25.55;;;;;;;2.47;100.00;101490.89;1747703;80;21047;-69
2021/12/16 09:59:23;;;;;;;57.38;24.92;;;;;;;2.54;100.00;101493.91;1750999;81;21086;-69
2021/12/16 10:01:53;;;;;;;63.63;27.77;;;;;;;2.46;100.00;101490.48;1757404;81;21543;-70
2021/12/16 10:04:23;;;;;;;56.33;25.80;;;;;;;2.48;100.00;101482.87;1759677;81;21012;-69
2021/12/16 10:06:54;;;;;;;52.13;23.18;;;;;;;2.39;100.00;101481.98;1756641;81;20984;-69
2021/12/16 10:09:22;;;;;;;53.28;24.77;;;;;;;2.45;100.00;101479.03;1769394;80;21071;-69
2021/12/16 10:11:53;;;;;;;52.75;24.87;;;;;;;2.49;100.00;101473.12;1756603;81;20984;-69
2021/12/16 10:19:46;;;;;;;51.50;24.25;;;;;;;2.46;100.00;101467.61;1769088;81;21024;-69
2021/12/16 10:22:33;;;;;;;48.30;22.32;;;;;;;2.37;100.00;101462.06;1769556;80;21504;-69
2021/12/16 10:25:24;;;;;;;48.15;21.97;;;;;;;2.28;100.00;101455.66;1763499;80;21036;-69
2021/12/16 10:27:59;;;;;;;47.90;21.55;;;;;;;2.29;100.00;101455.22;1756989;80;21074;-68
2021/12/16 10:30:43;;;;;;;48.70;23.52;;;;;;;2.31;100.00;101449.33;1756514;80;21568;-69
2021/12/16 10:33:15;;;;;;;48.73;22.93;;;;;;;2.43;100.00;101453.59;1764710;80;21465;-69
2021/12/16 10:35:47;;;;;;;46.37;20.75;;;;;;;2.47;100.00;101452.77;1758155;81;21013;-70
2021/12/16 10:38:12;;;;;;;45.20;22.65;;;;;;;2.50;100.00;101454.50;1752551;81;21524;-69
2021/12/16 10:40:50;;;;;;;46.13;22.60;;;;;;;2.45;100.00;101455.72;1761128;80;21047;-69
2021/12/16 10:43:31;;;;;;;56.02;26.15;;;;;;;2.48;100.00;101453.21;1750840;81;21032;-68
2021/12/16 10:46:08;;;;;;;52.58;25.65;;;;;;;2.37;100.00;101449.36;1744736;80;21587;-69
2021/12/16 10:48:42;;;;;;;54.95;25.37;;;;;;;2.40;100.00;101442.17;1761960;80;21052;-69
2021/12/16 10:51:29;;;;;;;57.23;28.30;;;;;;;2.43;100.00;101444.70;1771835;80;21016;-68
2021/12/16 10:54:14;;;;;;;59.03;28.12;;;;;;;2.49;100.00;101440.08;1773629;80;21519;-69
2021/12/16 10:57:10;;;;;;;60.88;28.55;;;;;;;2.55;100.00;101438.83;1745006;81;21090;-69
2021/12/16 10:59:48;;;;;;;63.80;30.62;;;;;;;2.61;100.00;101428.25;1755750;80;21015;-69
2021/12/16 11:02:20;;;;;;;64.53;30.90;;;;;;;2.61;100.00;101441.39;1749167;80;21039;-69
2021/12/16 11:04:55;;;;;;;71.60;32.48;;;;;;;2.60;100.00;101440.55;1763764;81;21541;-69
2021/12/16 11:07:33;;;;;;;98.27;40.17;;;;;;;2.60;100.00;101440.55;1744720;81;21058;-69
2021/12/16 11:10:14;;;;;;;89.65;36.15;;;;;;;2.56;100.00;101438.84;1745810;81;21032;-68
2021/12/16 11:12:58;;;;;;;87.05;35.95;;;;;;;2.42;100.00;101445.56;1758302;80;21557;-69
2021/12/16 11:15:33;;;;;;;98.97;38.85;;;;;;;2.41;100.00;101438.77;1756543;81;21029;-69
2021/12/16 11:18:11;;;;;;;88.30;35.43;;;;;;;2.39;100.00;101436.23;1762891;81;21040;-69
2021/12/16 11:21:00;;;;;;;78.35;31.82;;;;;;;2.34;100.00;101435.78;1754965;81;21035;-69
2021/12/16 11:23:33;;;;;;;66.22;26.70;;;;;;;2.35;100.00;101431.12;1769868;80;21016;-69
2021/12/16 11:26:18;;;;;;;58.55;24.98;;;;;;;2.29;100.00;101427.28;1739931;81;21682;-69
2021/12/16 11:28:54;;;;;;;75.72;29.30;;;;;;;2.29;100.00;101423.07;1748270;81;21054;-69
2021/12/16 11:31:29;;;;;;;90.95;34.30;;;;;;;2.37;100.00;101426.89;1741376;81;21027;-69
2021/12/16 11:34:03;;;;;;;88.30;33.20;;;;;;;2.43;100.00;101437.08;1751620;81;21067;-69
2021/12/16 11:36:35;;;;;;;79.90;32.08;;;;;;;2.43;100.00;101437.08;1762217;80;21088;-69
2021/12/16 11:39:19;;;;;;;81.17;32.83;;;;;;;2.44;100.00;101437.52;1750654;81;21030;-69
2021/12/16 11:41:50;;;;;;;96.97;37.70;;;;;;;2.47;100.00;101434.14;1762911;81;20996;-68
2021/12/16 11:44:24;;;;;;;77.72;31.07;;;;;;;2.34;100.00;101435.36;1749047;81;21449;-68
2021/12/16 11:47:02;;;;;;;57.20;26.82;;;;;;;2.36;100.00;101432.83;1757731;81;21063;-69
2021/12/16 11:49:42;;;;;;;54.30;26.05;;;;;;;2.30;100.00;101422.64;1756664;81;21020;-68
2021/12/16 11:52:14;;;;;;;57.70;26.25;;;;;;;2.23;100.00;101422.16;1760514;80;21567;-69
2021/12/16 11:55:02;;;;;;;57.48;25.82;;;;;;;2.28;100.00;101417.97;1744061;81;21094;-69
2021/12/16 11:57:43;;;;;;;61.75;28.05;;;;;;;2.21;100.00;101409.48;1755209;80;21031;-69
2021/12/16 12:00:19;;;;;;;63.90;28.80;;;;;;;2.20;100.00;101413.69;1752589;80;21551;-69
2021/12/16 12:02:50;;;;;;;47.88;23.60;;;;;;;2.17;100.00;101406.47;1760443;80;21064;-69
2021/12/16 12:05:42;;;;;;;45.55;22.15;;;;;;;2.05;100.00;101400.93;1756484;81;21037;-69
2021/12/16 12:08:20;;;;;;;48.30;23.12;;;;;;;2.05;100.00;101400.93;1754819;81;21021;-69
2021/12/16 12:10:59;;;;;;;47.43;22.17;;;;;;;1.95;100.00;101380.14;1754246;80;21579;-69
2021/12/16 12:13:36;;;;;;;47.90;22.93;;;;;;;1.95;100.00;101380.14;1753555;80;21028;-69
2021/12/16 12:16:17;;;;;;;40.05;21.07;;;;;;;2.05;100.00;101384.42;1754926;80;21024;-69
2021/12/16 12:18:50;;;;;;;38.00;18.75;;;;;;;2.04;100.00;101391.59;1747093;81;21492;-68
2021/12/16 12:21:56;;;;;;;44.05;22.27;;;;;;;2.04;100.00;101391.59;1748436;81;21019;-68
2021/12/16 12:24:32;;;;;;;50.48;23.77;;;;;;;2.02;100.00;101381.01;1765261;80;20997;-69
2021/12/16 12:27:04;;;;;;;50.55;24.23;;;;;;;1.95;100.00;101367.02;1730767;80;21024;-69
2021/12/16 12:29:37;;;;;;;57.67;27.07;;;;;;;1.95;100.00;101368.28;1767152;80;20996;-69
2021/12/16 12:32:24;;;;;;;64.22;28.10;;;;;;;1.92;100.00;101366.14;1753387;80;21051;-68
2021/12/16 12:34:57;;;;;;;67.12;29.82;;;;;;;1.89;100.00;101366.14;1754619;81;21076;-69
2021/12/16 12:37:27;;;;;;;76.97;31.42;;;;;;;1.84;100.00;101366.09;1770377;80;21577;-68
2021/12/16 12:40:05;;;;;;;86.25;35.55;;;;;;;1.85;100.00;101370.34;1762934;80;21052;-68
2021/12/16 12:42:33;;;;;;;93.90;38.50;;;;;;;1.88;100.00;101369.08;1756080;81;21028;-68
2021/12/16 12:45:05;;;;;;;85.72;34.38;;;;;;;1.97;100.00;101369.14;1748212;81;21067;-69
2021/12/16 12:47:35;;;;;;;78.47;31.40;;;;;;;2.01;100.00;101367.47;1757810;80;21042;-68
2021/12/16 12:50:30;;;;;;;64.97;28.15;;;;;;;2.02;100.00;101369.16;1761382;81;21067;-69
2021/12/16 12:53:01;;;;;;;60.85;24.98;;;;;;;2.04;100.00;101361.12;1746492;80;21035;-68
2021/12/16 12:55:33;;;;;;;60.73;25.48;;;;;;;1.96;100.00;101362.77;1752273;80;21037;-69
2021/12/16 12:58:15;;;;;;;52.15;23.45;;;;;;;1.92;100.00;101363.17;1754381;81;20984;-69
2021/12/16 13:00:56;;;;;;;50.85;23.38;;;;;;;1.91;100.00;101362.76;1753209;81;21046;-68
2021/12/16 13:03:34;;;;;;;48.75;22.15;;;;;;;1.87;100.00;101356.39;1751927;80;21040;-69
2021/12/16 13:06:13;;;;;;;58.40;24.35;;;;;;;1.81;100.00;101353.39;1744195;81;21055;-68
2021/12/16 13:08:46;;;;;;;58.80;25.40;;;;;;;1.81;100.00;101353.39;1755800;81;21569;-68
2021/12/16 13:11:30;;;;;;;76.02;29.23;;;;;;;1.83;100.00;101350.88;1756371;81;21115;-68
2021/12/16 13:14:24;;;;;;;82.25;34.18;;;;;;;1.82;100.00;101356.77;1763669;81;20989;-69
2021/12/16 13:16:59;;;;;;;91.30;36.55;;;;;;;1.71;100.00;101352.48;1742140;81;21126;-68
2021/12/16 13:28:41;;;;;;;79.20;29.80;;;;;;;1.67;100.00;101368.54;1761799;80;21049;-69
2021/12/16 13:31:29;;;;;;;72.75;28.38;;;;;;;1.66;100.00;101365.55;1756594;81;21031;-68
2021/12/16 13:33:58;;;;;;;67.10;26.73;;;;;;;1.63;100.00;101359.63;1750734;80;21499;-68
2021/12/16 13:36:44;;;;;;;69.92;26.62;;;;;;;1.65;100.00;101366.41;1750883;81;21066;-69
2021/12/16 13:39:19;;;;;;;59.05;23.62;;;;;;;1.66;100.00;101361.75;1753355;81;21066;-68
2021/12/16 13:42:12;;;;;;;47.17;20.88;;;;;;;1.53;100.00;101358.29;1745798;81;21503;-68
2021/12/16 13:44:58;;;;;;;41.60;17.52;;;;;;;1.50;100.00;101357.41;1751638;80;21023;-69
2021/12/16 14:04:41;;;;;;;33.98;16.87;;;;;;;1.74;100.00;101340.23;1765316;80;21084;-69
2021/12/16 14:10:09;;;;;;;38.45;17.73;;;;;;;1.78;100.00;101333.93;1747635;80;21075;-68
2021/12/16 14:15:44;;;;;;;37.33;16.52;;;;;;;1.69;100.00;101340.21;1775569;80;21522;-69
2021/12/16 14:23:01;;;;;;;39.13;16.75;;;;;;;1.64;100.00;101338.05;1735432;81;21547;-69
2021/12/16 14:23:58;;;;;;;30.82;15.10;;;;;;;1.58;100.00;101339.28;1757683;81;21457;-69
2021/12/16 14:26:34;;;;;;;37.23;17.27;;;;;;;1.54;100.00;101338.44;1751338;81;21587;-69